Wetterdaten: aktuell Donnerstag, 16.08.2018 00:11
Datum Zeit Temp. A. Feuchte A. Luftdruck Regen Wind Richtung Richtung Taupunkt Windchill Windben
16.08.2018 00:11 18,9 C 68 % 1019,2 hPa 0,0 l/m 2,4 km/h (1 Bft) N-NW 336 12,9 C 18,9 C 4,8 km/h (1 Bft)
16.08.2018 00:10 18,9 C 68 % 1019,1 hPa 0,0 l/m 4,7 km/h (1 Bft) N-NW 336 12,9 C 18,9 C 6,4 km/h (2 Bft)
16.08.2018 00:09 18,9 C 68 % 1019,2 hPa 0,0 l/m 3,3 km/h (1 Bft) N-NW 334 12,9 C 18,9 C 6,4 km/h (2 Bft)
16.08.2018 00:08 18,9 C 68 % 1019,2 hPa 0,0 l/m 2,9 km/h (1 Bft) N-NW 335 12,9 C 18,9 C 6,4 km/h (2 Bft)
16.08.2018 00:07 18,9 C 68 % 1019,2 hPa 0,0 l/m 2,2 km/h (1 Bft) N-NW 336 12,9 C 18,9 C 4,8 km/h (1 Bft)
16.08.2018 00:06 19,0 C 68 % 1019,2 hPa 0,0 l/m 1,7 km/h (1 Bft) N-NW 336 13,0 C 19,0 C 3,2 km/h (1 Bft)
16.08.2018 00:05 19,0 C 68 % 1019,2 hPa 0,0 l/m 4,5 km/h (1 Bft) N-NW 336 13,0 C 19,0 C 6,4 km/h (2 Bft)
16.08.2018 00:04 19,0 C 68 % 1019,1 hPa 0,0 l/m 3,0 km/h (1 Bft) N-NW 345 13,0 C 19,0 C 6,4 km/h (2 Bft)
16.08.2018 00:03 19,0 C 68 % 1019,2 hPa 0,0 l/m 4,6 km/h (1 Bft) N-NW 346 13,0 C 19,0 C 6,4 km/h (2 Bft)
16.08.2018 00:02 19,0 C 68 % 1019,1 hPa 0,0 l/m 5,9 km/h (2 Bft) N-NW 346 13,0 C 19,0 C 9,7 km/h (2 Bft)
16.08.2018 00:01 19,1 C 68 % 1019,2 hPa 0,0 l/m 3,7 km/h (1 Bft) NW 321 13,1 C 19,1 C 6,4 km/h (2 Bft)
16.08.2018 00:00 19,1 C 68 % 1019,2 hPa 0,0 l/m 3,7 km/h (1 Bft) NW 319 13,1 C 19,1 C 6,4 km/h (2 Bft)
15.08.2018 23:59 19,1 C 68 % 1019,2 hPa 0,0 l/m 3,8 km/h (1 Bft) NW 319 13,1 C 19,1 C 4,8 km/h (1 Bft)
15.08.2018 23:58 19,1 C 68 % 1019,2 hPa 0,0 l/m 4,5 km/h (1 Bft) NW 316 13,1 C 19,1 C 4,8 km/h (1 Bft)
15.08.2018 23:57 19,1 C 68 % 1019,2 hPa 0,0 l/m 4,9 km/h (1 Bft) N-NW 333 13,1 C 19,1 C 6,4 km/h (2 Bft)
15.08.2018 23:56 19,1 C 68 % 1019,1 hPa 0,0 l/m 4,2 km/h (1 Bft) N-NW 331 13,1 C 19,1 C 6,4 km/h (2 Bft)
15.08.2018 23:55 19,1 C 68 % 1019,1 hPa 0,0 l/m 4,6 km/h (1 Bft) N-NW 329 13,1 C 19,1 C 6,4 km/h (2 Bft)
15.08.2018 23:54 19,1 C 68 % 1019,2 hPa 0,0 l/m 5,0 km/h (1 Bft) NW 325 13,1 C 19,1 C 8,0 km/h (2 Bft)
15.08.2018 23:53 19,1 C 68 % 1019,2 hPa 0,0 l/m 5,0 km/h (1 Bft) NW 326 13,1 C 19,1 C 8,0 km/h (2 Bft)
15.08.2018 23:52 19,1 C 68 % 1019,1 hPa 0,0 l/m 5,1 km/h (1 Bft) NW 325 13,1 C 19,1 C 9,7 km/h (2 Bft)
15.08.2018 23:51 19,2 C 68 % 1019,2 hPa 0,0 l/m 5,8 km/h (2 Bft) N-NW 332 13,1 C 19,2 C 9,7 km/h (2 Bft)
15.08.2018 23:50 19,2 C 68 % 1019,1 hPa 0,0 l/m 7,3 km/h (2 Bft) N-NW 328 13,1 C 19,2 C 9,7 km/h (2 Bft)
15.08.2018 23:49 19,2 C 68 % 1019,1 hPa 0,0 l/m 5,4 km/h (2 Bft) N-NW 338 13,1 C 19,2 C 9,7 km/h (2 Bft)
15.08.2018 23:48 19,2 C 68 % 1019,1 hPa 0,0 l/m 7,1 km/h (2 Bft) NW 323 13,1 C 19,2 C 11,3 km/h (2 Bft)
15.08.2018 23:47 19,2 C 67 % 1019,1 hPa 0,0 l/m 5,7 km/h (2 Bft) N-NW 330 12,9 C 19,2 C 8,0 km/h (2 Bft)
15.08.2018 23:46 19,2 C 67 % 1019,1 hPa 0,0 l/m 3,9 km/h (1 Bft) N-NW 333 12,9 C 19,2 C 6,4 km/h (2 Bft)
15.08.2018 23:45 19,2 C 67 % 1019,1 hPa 0,0 l/m 5,5 km/h (2 Bft) N-NW 340 12,9 C 19,2 C 8,0 km/h (2 Bft)
15.08.2018 23:44 19,2 C 67 % 1019,1 hPa 0,0 l/m 5,8 km/h (2 Bft) N-NW 336 12,9 C 19,2 C 9,7 km/h (2 Bft)
15.08.2018 23:43 19,2 C 67 % 1019,1 hPa 0,0 l/m 3,9 km/h (1 Bft) N-NW 327 12,9 C 19,2 C 6,4 km/h (2 Bft)
15.08.2018 23:42 19,2 C 67 % 1019,1 hPa 0,0 l/m 5,7 km/h (2 Bft) N-NW 327 12,9 C 19,2 C 8,0 km/h (2 Bft)
15.08.2018 23:41 19,2 C 67 % 1019,1 hPa 0,0 l/m 4,6 km/h (1 Bft) NW 319 12,9 C 19,2 C 8,0 km/h (2 Bft)
15.08.2018 23:40 19,2 C 67 % 1019,1 hPa 0,0 l/m 5,1 km/h (1 Bft) NW 319 12,9 C 19,2 C 9,7 km/h (2 Bft)
15.08.2018 23:39 19,2 C 67 % 1019,1 hPa 0,0 l/m 6,1 km/h (2 Bft) NW 326 12,9 C 19,2 C 8,0 km/h (2 Bft)
15.08.2018 23:38 19,2 C 67 % 1019,1 hPa 0,0 l/m 5,6 km/h (2 Bft) N-NW 333 12,9 C 19,2 C 9,7 km/h (2 Bft)
15.08.2018 23:37 19,3 C 67 % 1019,1 hPa 0,0 l/m 5,8 km/h (2 Bft) N-NW 331 13,0 C 19,3 C 9,7 km/h (2 Bft)
15.08.2018 23:36 19,3 C 67 % 1019,1 hPa 0,0 l/m 6,6 km/h (2 Bft) N 9 13,0 C 19,3 C 11,3 km/h (2 Bft)
15.08.2018 23:35 19,3 C 67 % 1019,1 hPa 0,0 l/m 6,8 km/h (2 Bft) N-NW 328 13,0 C 19,3 C 12,9 km/h (3 Bft)
15.08.2018 23:34 19,3 C 67 % 1019,1 hPa 0,0 l/m 6,8 km/h (2 Bft) NW 324 13,0 C 19,3 C 8,0 km/h (2 Bft)
15.08.2018 23:33 19,3 C 67 % 1019,1 hPa 0,0 l/m 6,2 km/h (2 Bft) NW 319 13,0 C 19,3 C 8,0 km/h (2 Bft)
15.08.2018 23:32 19,3 C 67 % 1019,1 hPa 0,0 l/m 6,1 km/h (2 Bft) N-NW 343 13,0 C 19,3 C 9,7 km/h (2 Bft)
15.08.2018 23:31 19,3 C 67 % 1019,1 hPa 0,0 l/m 7,2 km/h (2 Bft) NW 323 13,0 C 19,3 C 11,3 km/h (2 Bft)
15.08.2018 23:30 19,3 C 67 % 1019,0 hPa 0,0 l/m 8,3 km/h (2 Bft) N 355 13,0 C 19,3 C 12,9 km/h (3 Bft)
15.08.2018 23:29 19,3 C 67 % 1019,0 hPa 0,0 l/m 6,4 km/h (2 Bft) N-NW 327 13,0 C 19,3 C 9,7 km/h (2 Bft)
15.08.2018 23:28 19,3 C 67 % 1019,1 hPa 0,0 l/m 7,5 km/h (2 Bft) N 355 13,0 C 19,3 C 11,3 km/h (2 Bft)
15.08.2018 23:27 19,3 C 67 % 1019,0 hPa 0,0 l/m 6,8 km/h (2 Bft) N-NW 329 13,0 C 19,3 C 9,7 km/h (2 Bft)
15.08.2018 23:26 19,3 C 67 % 1019,0 hPa 0,0 l/m 4,7 km/h (1 Bft) N-NW 340 13,0 C 19,3 C 8,0 km/h (2 Bft)
15.08.2018 23:25 19,3 C 67 % 1019,0 hPa 0,0 l/m 4,8 km/h (1 Bft) N-NW 342 13,0 C 19,3 C 6,4 km/h (2 Bft)
15.08.2018 23:24 19,3 C 67 % 1019,1 hPa 0,0 l/m 6,0 km/h (2 Bft) N-NW 336 13,0 C 19,3 C 8,0 km/h (2 Bft)
15.08.2018 23:23 19,3 C 67 % 1019,1 hPa 0,0 l/m 8,9 km/h (2 Bft) N 355 13,0 C 19,3 C 11,3 km/h (2 Bft)
15.08.2018 23:22 19,3 C 67 % 1019,1 hPa 0,0 l/m 6,0 km/h (2 Bft) NW 323 13,0 C 19,3 C 11,3 km/h (2 Bft)
15.08.2018 23:21 19,3 C 67 % 1019,1 hPa 0,0 l/m 4,8 km/h (1 Bft) N-NW 343 13,0 C 19,3 C 8,0 km/h (2 Bft)
15.08.2018 23:20 19,4 C 67 % 1019,1 hPa 0,0 l/m 4,6 km/h (1 Bft) N-NW 344 13,1 C 19,4 C 8,0 km/h (2 Bft)
15.08.2018 23:19 19,4 C 67 % 1019,1 hPa 0,0 l/m 5,6 km/h (2 Bft) N 355 13,1 C 19,4 C 9,7 km/h (2 Bft)
15.08.2018 23:18 19,4 C 67 % 1019,1 hPa 0,0 l/m 5,5 km/h (2 Bft) N 355 13,1 C 19,4 C 8,0 km/h (2 Bft)
15.08.2018 23:17 19,4 C 67 % 1019,0 hPa 0,0 l/m 6,3 km/h (2 Bft) N-NW 339 13,1 C 19,4 C 9,7 km/h (2 Bft)
15.08.2018 23:16 19,4 C 67 % 1019,0 hPa 0,0 l/m 6,2 km/h (2 Bft) N-NW 338 13,1 C 19,4 C 9,7 km/h (2 Bft)
15.08.2018 23:15 19,4 C 67 % 1019,0 hPa 0,0 l/m 5,6 km/h (2 Bft) NW 323 13,1 C 19,4 C 9,7 km/h (2 Bft)
15.08.2018 23:14 19,4 C 67 % 1019,0 hPa 0,0 l/m 6,4 km/h (2 Bft) NW 320 13,1 C 19,4 C 9,7 km/h (2 Bft)
15.08.2018 23:13 19,4 C 67 % 1019,0 hPa 0,0 l/m 5,5 km/h (2 Bft) N 355 13,1 C 19,4 C 12,9 km/h (3 Bft)
15.08.2018 23:12 19,4 C 67 % 1019,0 hPa 0,0 l/m 6,3 km/h (2 Bft) NW 325 13,1 C 19,4 C 8,0 km/h (2 Bft)
15.08.2018 23:11 19,4 C 67 % 1019,0 hPa 0,0 l/m 5,6 km/h (2 Bft) NW 325 13,1 C 19,4 C 8,0 km/h (2 Bft)
15.08.2018 23:10 19,4 C 67 % 1019,0 hPa 0,0 l/m 6,4 km/h (2 Bft) NW 319 13,1 C 19,4 C 8,0 km/h (2 Bft)
15.08.2018 23:09 19,4 C 67 % 1019,0 hPa 0,0 l/m 7,2 km/h (2 Bft) NW 312 13,1 C 19,4 C 9,7 km/h (2 Bft)
15.08.2018 23:08 19,4 C 67 % 1018,9 hPa 0,0 l/m 5,1 km/h (1 Bft) NW 325 13,1 C 19,4 C 8,0 km/h (2 Bft)
15.08.2018 23:07 19,4 C 67 % 1018,9 hPa 0,0 l/m 6,2 km/h (2 Bft) N 355 13,1 C 19,4 C 9,7 km/h (2 Bft)
15.08.2018 23:06 19,4 C 67 % 1018,9 hPa 0,0 l/m 4,5 km/h (1 Bft) N-NW 335 13,1 C 19,4 C 8,0 km/h (2 Bft)
15.08.2018 23:05 19,4 C 67 % 1018,9 hPa 0,0 l/m 4,9 km/h (1 Bft) N-NW 338 13,1 C 19,4 C 8,0 km/h (2 Bft)
15.08.2018 23:04 19,5 C 67 % 1018,9 hPa 0,0 l/m 6,6 km/h (2 Bft) N-NW 341 13,2 C 19,5 C 9,7 km/h (2 Bft)
15.08.2018 23:03 19,5 C 67 % 1018,9 hPa 0,0 l/m 7,1 km/h (2 Bft) N-NW 348 13,2 C 19,5 C 11,3 km/h (2 Bft)
15.08.2018 23:01 19,5 C 67 % 1018,9 hPa 0,0 l/m 6,1 km/h (2 Bft) N 355 13,2 C 19,5 C 8,0 km/h (2 Bft)
15.08.2018 23:00 19,5 C 67 % 1018,9 hPa 0,0 l/m 5,0 km/h (1 Bft) N-NW 327 13,2 C 19,5 C 6,4 km/h (2 Bft)
15.08.2018 22:59 19,6 C 67 % 1018,9 hPa 0,0 l/m 6,6 km/h (2 Bft) NW 326 13,3 C 19,6 C 9,7 km/h (2 Bft)
15.08.2018 22:58 19,6 C 67 % 1018,9 hPa 0,0 l/m 5,2 km/h (1 Bft) N-NW 335 13,3 C 19,6 C 8,0 km/h (2 Bft)
15.08.2018 22:57 19,6 C 67 % 1019,0 hPa 0,0 l/m 6,3 km/h (2 Bft) N-NW 333 13,3 C 19,6 C 9,7 km/h (2 Bft)
15.08.2018 22:56 19,6 C 67 % 1019,0 hPa 0,0 l/m 4,8 km/h (1 Bft) N-NW 341 13,3 C 19,6 C 8,0 km/h (2 Bft)
15.08.2018 22:55 19,6 C 67 % 1018,9 hPa 0,0 l/m 6,4 km/h (2 Bft) N-NW 331 13,3 C 19,6 C 9,7 km/h (2 Bft)
15.08.2018 22:54 19,6 C 66 % 1018,9 hPa 0,0 l/m 6,2 km/h (2 Bft) N 350 13,1 C 19,6 C 9,7 km/h (2 Bft)
15.08.2018 22:53 19,7 C 66 % 1018,9 hPa 0,0 l/m 4,8 km/h (1 Bft) N-NW 341 13,2 C 19,7 C 8,0 km/h (2 Bft)
15.08.2018 22:52 19,7 C 66 % 1018,9 hPa 0,0 l/m 6,2 km/h (2 Bft) N-NW 340 13,2 C 19,7 C 8,0 km/h (2 Bft)
15.08.2018 22:51 19,7 C 66 % 1018,9 hPa 0,0 l/m 5,1 km/h (1 Bft) N-NW 342 13,2 C 19,7 C 8,0 km/h (2 Bft)
15.08.2018 22:50 19,7 C 66 % 1018,9 hPa 0,0 l/m 4,2 km/h (1 Bft) N 355 13,2 C 19,7 C 9,7 km/h (2 Bft)
15.08.2018 22:49 19,7 C 66 % 1018,9 hPa 0,0 l/m 6,4 km/h (2 Bft) N 355 13,2 C 19,7 C 9,7 km/h (2 Bft)
15.08.2018 22:48 19,7 C 66 % 1018,9 hPa 0,0 l/m 5,4 km/h (2 Bft) N-NW 334 13,2 C 19,7 C 9,7 km/h (2 Bft)
15.08.2018 22:47 19,8 C 66 % 1018,9 hPa 0,0 l/m 4,6 km/h (1 Bft) N 350 13,3 C 19,8 C 8,0 km/h (2 Bft)
15.08.2018 22:46 19,8 C 66 % 1018,9 hPa 0,0 l/m 6,8 km/h (2 Bft) N-NW 338 13,3 C 19,8 C 12,9 km/h (3 Bft)
15.08.2018 22:45 19,8 C 66 % 1018,9 hPa 0,0 l/m 6,4 km/h (2 Bft) N-NW 342 13,3 C 19,8 C 8,0 km/h (2 Bft)
15.08.2018 22:44 19,8 C 66 % 1018,9 hPa 0,0 l/m 7,6 km/h (2 Bft) N-NW 347 13,3 C 19,8 C 9,7 km/h (2 Bft)
15.08.2018 22:43 19,8 C 66 % 1018,9 hPa 0,0 l/m 5,9 km/h (2 Bft) N-NW 339 13,3 C 19,8 C 8,0 km/h (2 Bft)
15.08.2018 22:42 19,8 C 66 % 1019,0 hPa 0,0 l/m 6,2 km/h (2 Bft) N-NW 343 13,3 C 19,8 C 9,7 km/h (2 Bft)
15.08.2018 22:41 19,8 C 66 % 1018,9 hPa 0,0 l/m 7,2 km/h (2 Bft) N 355 13,3 C 19,8 C 9,7 km/h (2 Bft)
15.08.2018 22:40 19,8 C 66 % 1018,9 hPa 0,0 l/m 6,2 km/h (2 Bft) N-NW 329 13,3 C 19,8 C 9,7 km/h (2 Bft)
15.08.2018 22:39 19,8 C 66 % 1018,9 hPa 0,0 l/m 5,6 km/h (2 Bft) N-NW 347 13,3 C 19,8 C 9,7 km/h (2 Bft)
15.08.2018 22:38 19,9 C 66 % 1018,9 hPa 0,0 l/m 4,2 km/h (1 Bft) N 355 13,4 C 19,9 C 6,4 km/h (2 Bft)
15.08.2018 22:37 19,9 C 66 % 1018,9 hPa 0,0 l/m 5,0 km/h (1 Bft) N 355 13,4 C 19,9 C 9,7 km/h (2 Bft)
15.08.2018 22:36 19,9 C 66 % 1018,9 hPa 0,0 l/m 5,5 km/h (2 Bft) N-NW 329 13,4 C 19,9 C 8,0 km/h (2 Bft)
15.08.2018 22:35 19,9 C 66 % 1018,9 hPa 0,0 l/m 5,7 km/h (2 Bft) NW 325 13,4 C 19,9 C 9,7 km/h (2 Bft)
15.08.2018 22:34 19,9 C 66 % 1018,9 hPa 0,0 l/m 5,0 km/h (1 Bft) N-NW 327 13,4 C 19,9 C 8,0 km/h (2 Bft)
15.08.2018 22:33 19,9 C 66 % 1018,9 hPa 0,0 l/m 5,0 km/h (1 Bft) N-NW 336 13,4 C 19,9 C 9,7 km/h (2 Bft)
15.08.2018 22:32 19,9 C 66 % 1018,8 hPa 0,0 l/m 5,8 km/h (2 Bft) N-NW 337 13,4 C 19,9 C 11,3 km/h (2 Bft)
15.08.2018 22:31 19,9 C 66 % 1018,9 hPa 0,0 l/m 5,3 km/h (1 Bft) N-NW 336 13,4 C 19,9 C 8,0 km/h (2 Bft)
_ Min-Zeit 06:30 18:51 01:00 - 06:03 - - 06:30 06:30 06:03
Minimum _ 14,3 C 53 % 1016,5 hPa - 0,0 km/h (0 Bft) - - 12,3 C 14,3 C 0,0 km/h (0 Bft)
_ Max-Zeit 17:33 06:31 10:59 01:00 13:14 - - 11:13 17:33 13:15
Maximum _ 23,9 C 89 % 1019,7 hPa 0,0 l/m 18,0 km/h
W-SW (3 Bft)
- - 16,3 C 23,9 C 22,5 km/h
W-SW (4 Bft)
Durchschnitt _ 19,1 C 73 % 1018,3 hPa #0,0 l/m 5,1 km/h (1 Bft) NW - 14,0 C 19,1 C 7,6 km/h (2 Bft)
Wetterstation Eggerszell